KSUA/SUA METAR and TAF weather

Enter ICAO airport designator
Station Type Date Time Source
KSUA METAR 2021/01/17 17:50 UTC NOAA

KSUA 171750Z 06006KT 10SM BKN055 18/06 A3006


Station Type Date Time Source
KSUA Decoded METAR 2021/01/17 17:50 UTC NOAA

Stuart, Witham Field Airport, FL, United States (KSUA) 27-10-54N 080-13-16W
Jan 17, 2021 - 12:50 PM EST / 2021.01.17 1750 UTC
Wind: from the ENE (060 degrees) at 7 MPH (6 KT):0
Visibility: 10 mile(s):0
Sky conditions: mostly cloudy
Temperature: 64 F (18 C)
Dew Point: 42 F (6 C)
Relative Humidity: 45%
Pressure (altimeter): 30.06 in. Hg (1017 hPa)
ob: KSUA 171750Z 06006KT 10SM BKN055 18/06 A3006
cycle: 18

Station Type Date Time Source
KSUA TAF 2021/01/17 18:24 UTC NOAA

TAF KSUA 171721Z 1718/1818 27009KT P6SM BKN040 BKN250
FM180000 VRB03KT P6SM BKN040 BKN250
FM181500 30008KT P6SM SCT035

Example: see airport list